createdAt,value
2022-10-09T00:02:58.607Z,18.5
2022-10-09T00:08:35.283Z,18.5
2022-10-09T00:14:13.300Z,18.5
2022-10-09T00:19:50.741Z,18.5
2022-10-09T00:25:27.387Z,18.5
2022-10-09T00:30:53.128Z,18.5
2022-10-09T00:36:30.983Z,18.5
2022-10-09T00:41:51.614Z,18.5
2022-10-09T00:47:29.651Z,18.4
2022-10-09T00:53:08.144Z,18.5
2022-10-09T00:58:45.293Z,18.5
2022-10-09T01:04:23.359Z,18.4
2022-10-09T01:10:00.545Z,18.4
2022-10-09T01:15:37.444Z,18.5
2022-10-09T01:21:15.231Z,18.4
2022-10-09T01:26:36.657Z,18.5
2022-10-09T01:32:13.772Z,18.4
2022-10-09T01:37:35.784Z,18.4
2022-10-09T01:43:12.935Z,18.4
2022-10-09T01:48:34.822Z,18.5
2022-10-09T01:53:57.686Z,18.4
2022-10-09T01:59:35.193Z,18.4
2022-10-09T02:04:56.566Z,18.4
2022-10-09T02:10:33.215Z,18.4
2022-10-09T02:16:11.022Z,18.4
2022-10-09T02:21:33.368Z,18.4
2022-10-09T02:27:15.522Z,18.4
2022-10-09T02:32:58.840Z,18.4
2022-10-09T02:38:34.157Z,18.4
2022-10-09T02:44:11.280Z,18.4
2022-10-09T02:49:47.880Z,18.4
2022-10-09T02:55:08.895Z,18.4
2022-10-09T03:00:50.282Z,18.4
2022-10-09T03:06:28.939Z,18.4
2022-10-09T03:11:49.596Z,18.4
2022-10-09T03:16:56.213Z,18.4
2022-10-09T03:22:18.712Z,18.4
2022-10-09T03:27:38.998Z,18.4
2022-10-09T03:33:15.139Z,18.4
2022-10-09T03:38:37.626Z,18.4
2022-10-09T03:43:27.237Z,18.4
2022-10-09T03:48:34.107Z,18.4
2022-10-09T03:53:56.175Z,18.4
2022-10-09T03:59:01.861Z,18.4
2022-10-09T04:04:24.683Z,18.4
2022-10-09T04:09:46.217Z,18.4
2022-10-09T04:15:06.629Z,18.4
2022-10-09T04:20:28.898Z,18.4
2022-10-09T04:25:35.857Z,18.4
2022-10-09T04:30:57.756Z,18.4
2022-10-09T04:36:04.174Z,18.4
2022-10-09T04:41:26.145Z,18.4
2022-10-09T04:46:48.156Z,18.3
2022-10-09T04:52:12.560Z,18.3
2022-10-09T04:57:38.951Z,18.3
2022-10-09T05:03:02.423Z,18.3
2022-10-09T05:08:39.893Z,18.3
2022-10-09T05:14:17.155Z,18.3
2022-10-09T05:20:25.714Z,18.3
2022-10-09T05:25:51.255Z,18.3
2022-10-09T05:31:28.733Z,18.3
2022-10-09T05:37:10.525Z,18.3
2022-10-09T05:42:48.712Z,18.3
2022-10-09T05:48:26.653Z,18.3
2022-10-09T05:54:03.919Z,18.4
2022-10-09T05:59:45.082Z,18.4
2022-10-09T06:05:24.123Z,18.4
2022-10-09T06:11:06.215Z,18.4
2022-10-09T06:16:44.366Z,18.3
2022-10-09T06:22:25.886Z,18.3
2022-10-09T06:28:08.195Z,18.4
2022-10-09T06:33:46.999Z,18.4
2022-10-09T06:39:29.674Z,18.3
2022-10-09T06:45:07.316Z,18.4
2022-10-09T06:50:45.085Z,18.4
2022-10-09T06:56:23.220Z,18.3
2022-10-09T07:02:00.850Z,18.4
2022-10-09T07:07:39.277Z,18.4
2022-10-09T07:13:17.066Z,18.4
2022-10-09T07:18:54.869Z,18.4
2022-10-09T07:24:36.628Z,18.3
2022-10-09T07:30:14.788Z,18.4
2022-10-09T07:35:52.995Z,18.4
2022-10-09T07:41:30.375Z,18.4
2022-10-09T07:47:08.857Z,18.4
2022-10-09T07:52:45.711Z,18.4
2022-10-09T07:58:08.267Z,18.4
2022-10-09T08:03:50.152Z,18.4
2022-10-09T08:09:31.396Z,18.4
2022-10-09T08:15:10.229Z,18.4
2022-10-09T08:20:48.314Z,18.4
2022-10-09T08:26:25.047Z,18.4
2022-10-09T08:32:07.349Z,18.4
2022-10-09T08:37:47.567Z,18.4
2022-10-09T08:43:33.749Z,18.4
2022-10-09T08:48:55.930Z,18.4
2022-10-09T08:54:33.790Z,18.4
2022-10-09T08:59:55.466Z,18.4
2022-10-09T09:05:34.389Z,18.4
2022-10-09T09:11:12.683Z,18.4
2022-10-09T09:16:34.262Z,18.4
2022-10-09T09:22:12.006Z,18.4
2022-10-09T09:27:34.868Z,18.4
2022-10-09T09:33:00.235Z,18.5
2022-10-09T09:38:25.576Z,18.5
2022-10-09T09:45:06.945Z,18.5
2022-10-09T09:50:35.349Z,18.5
2022-10-09T09:56:39.108Z,18.5
2022-10-09T10:01:49.115Z,18.6
2022-10-09T10:07:12.538Z,18.6
2022-10-09T10:12:38.589Z,18.6
2022-10-09T10:18:06.324Z,18.6
2022-10-09T10:23:28.599Z,18.6
2022-10-09T10:28:38.985Z,18.6
2022-10-09T10:34:01.113Z,18.6
2022-10-09T10:39:39.061Z,18.6
2022-10-09T10:45:16.404Z,18.6
2022-10-09T10:50:40.768Z,18.6
2022-10-09T10:56:05.166Z,18.6
2022-10-09T11:01:27.451Z,18.6
2022-10-09T11:06:56.770Z,18.6
2022-10-09T11:34:13.509Z,18.6
2022-10-09T12:17:40.084Z,18.8
2022-10-09T12:23:45.540Z,18.8
2022-10-09T12:29:07.625Z,18.8
2022-10-09T12:34:45.756Z,18.8
2022-10-09T12:40:22.746Z,18.8
2022-10-09T12:46:07.560Z,18.8
2022-10-09T12:51:44.707Z,18.8
2022-10-09T12:57:24.026Z,18.8
2022-10-09T13:03:04.388Z,18.8
2022-10-09T13:08:41.179Z,18.8
2022-10-09T13:14:18.830Z,18.8
2022-10-09T13:19:57.284Z,18.8
2022-10-09T13:25:38.250Z,18.8
2022-10-09T13:31:16.562Z,18.8
2022-10-09T13:36:54.319Z,18.8
2022-10-09T13:42:32.842Z,18.8
2022-10-09T13:48:14.924Z,18.8
2022-10-09T13:53:53.008Z,18.8
2022-10-09T13:59:31.660Z,18.9
2022-10-09T14:05:10.305Z,18.9
2022-10-09T14:10:48.295Z,18.9
2022-10-09T14:16:25.052Z,18.9
2022-10-09T14:22:05.823Z,18.9
2022-10-09T14:27:44.044Z,18.9
2022-10-09T14:33:21.952Z,18.9
2022-10-09T14:39:21.799Z,19
2022-10-09T14:45:00.355Z,19
2022-10-09T14:50:21.884Z,19
2022-10-09T14:55:59.241Z,19.1
2022-10-09T15:01:36.175Z,19.1
2022-10-09T15:07:14.615Z,19.1
2022-10-09T15:12:52.893Z,19.1
2022-10-09T15:18:35.156Z,19.1
2022-10-09T15:24:12.655Z,19
2022-10-09T15:29:51.996Z,19
2022-10-09T15:35:31.790Z,19
2022-10-09T15:41:12.508Z,19
2022-10-09T15:46:50.825Z,19
2022-10-09T15:52:40.827Z,19
2022-10-09T15:58:20.253Z,19
2022-10-09T16:03:59.124Z,19
2022-10-09T16:09:36.566Z,19
2022-10-09T16:15:23.339Z,19
2022-10-09T16:20:48.779Z,19
2022-10-09T16:26:28.814Z,18.9
2022-10-09T16:31:50.326Z,18.9
2022-10-09T16:37:12.510Z,18.9
2022-10-09T16:43:21.397Z,18.9
2022-10-09T16:48:43.243Z,18.9
2022-10-09T16:54:10.219Z,18.9
2022-10-09T16:59:33.276Z,18.9
2022-10-09T17:05:10.963Z,18.9
2022-10-09T17:10:53.674Z,18.8
2022-10-09T17:16:18.354Z,18.9
2022-10-09T17:21:55.663Z,18.9
2022-10-09T17:27:18.677Z,18.8
2022-10-09T17:32:57.368Z,18.8
2022-10-09T17:38:40.543Z,18.8
2022-10-09T17:44:07.690Z,18.8
2022-10-09T17:49:19.235Z,18.8
2022-10-09T17:54:45.871Z,18.8
2022-10-09T18:00:08.065Z,18.8
2022-10-09T18:05:46.669Z,18.9
2022-10-09T18:10:53.188Z,18.8
2022-10-09T18:16:14.825Z,18.8
2022-10-09T18:21:42.916Z,18.8
2022-10-09T18:27:20.649Z,18.8
2022-10-09T18:32:47.684Z,18.8
2022-10-09T18:38:28.178Z,18.8
2022-10-09T18:44:05.278Z,18.8
2022-10-09T18:49:43.821Z,18.8
2022-10-09T18:55:25.301Z,18.8
2022-10-09T19:01:05.428Z,18.8
2022-10-09T19:06:48.424Z,18.8
2022-10-09T19:12:27.167Z,18.8
2022-10-09T19:18:05.365Z,18.8
2022-10-09T19:23:47.126Z,18.8
2022-10-09T19:29:24.879Z,18.8
2022-10-09T19:35:05.158Z,18.8
2022-10-09T19:40:47.839Z,18.8
2022-10-09T19:46:09.755Z,18.8
2022-10-09T19:51:51.358Z,18.8
2022-10-09T19:57:13.040Z,18.8
2022-10-09T20:02:50.038Z,18.8
2022-10-09T20:08:15.832Z,18.8
2022-10-09T20:13:56.100Z,18.8
2022-10-09T20:19:18.642Z,18.8
2022-10-09T20:24:40.354Z,18.8
2022-10-09T20:30:23.544Z,18.8
2022-10-09T20:35:47.261Z,18.8
2022-10-09T20:41:28.823Z,18.8
2022-10-09T20:46:51.396Z,18.8
2022-10-09T20:52:28.865Z,18.8
2022-10-09T20:57:54.797Z,18.8
2022-10-09T21:03:02.153Z,18.8
2022-10-09T21:08:24.941Z,18.8
2022-10-09T21:14:03.831Z,18.8
2022-10-09T21:19:25.941Z,18.8
2022-10-09T21:25:09.599Z,18.8
2022-10-09T21:30:35.826Z,18.8
2022-10-09T21:36:13.664Z,18.8
2022-10-09T21:42:14.174Z,18.8
2022-10-09T21:47:50.909Z,18.8
2022-10-09T21:53:27.756Z,18.8
2022-10-09T21:58:52.275Z,18.8
2022-10-09T22:04:29.261Z,18.8
2022-10-09T22:10:06.968Z,18.8
2022-10-09T22:15:30.491Z,18.8
2022-10-09T22:21:11.322Z,18.8
2022-10-09T22:26:49.737Z,18.8
2022-10-09T22:32:28.084Z,18.8
2022-10-09T22:38:04.483Z,18.8
2022-10-09T22:43:41.716Z,18.8
2022-10-09T22:49:03.422Z,18.8
2022-10-09T22:54:24.079Z,18.8
2022-10-09T23:00:01.041Z,18.8
2022-10-09T23:05:38.864Z,18.8
2022-10-09T23:11:00.857Z,18.8
2022-10-09T23:16:22.778Z,18.8
2022-10-09T23:21:45.998Z,18.8
2022-10-09T23:27:23.093Z,18.8
2022-10-09T23:33:00.646Z,18.8
2022-10-09T23:38:37.912Z,18.8
2022-10-09T23:43:59.273Z,18.8
2022-10-09T23:49:41.520Z,18.8
2022-10-09T23:55:04.382Z,18.8
